sensor_id;sensor_type;location;lat;lon;timestamp;P1;durP1;ratioP1;P2;durP2;ratioP2
67278;SDS011;54193;53.746;10.058;2022-12-18T00:02:30;20.95;;;8.70;;
67278;SDS011;54193;53.746;10.058;2022-12-18T00:05:16;13.87;;;5.37;;
67278;SDS011;54193;53.746;10.058;2022-12-18T00:08:02;15.02;;;5.70;;
67278;SDS011;54193;53.746;10.058;2022-12-18T00:10:48;15.93;;;6.80;;
67278;SDS011;54193;53.746;10.058;2022-12-18T00:13:34;12.50;;;6.45;;
67278;SDS011;54193;53.746;10.058;2022-12-18T00:16:21;11.68;;;5.68;;
67278;SDS011;54193;53.746;10.058;2022-12-18T00:19:08;27.27;;;10.05;;
67278;SDS011;54193;53.746;10.058;2022-12-18T00:21:55;20.65;;;8.13;;
67278;SDS011;54193;53.746;10.058;2022-12-18T00:24:40;19.13;;;7.72;;
67278;SDS011;54193;53.746;10.058;2022-12-18T00:27:26;20.52;;;6.90;;
67278;SDS011;54193;53.746;10.058;2022-12-18T00:30:11;16.02;;;6.65;;
67278;SDS011;54193;53.746;10.058;2022-12-18T00:32:57;14.02;;;6.25;;
67278;SDS011;54193;53.746;10.058;2022-12-18T00:35:43;18.00;;;7.60;;
67278;SDS011;54193;53.746;10.058;2022-12-18T00:38:29;25.92;;;8.20;;
67278;SDS011;54193;53.746;10.058;2022-12-18T00:41:15;20.92;;;6.68;;
67278;SDS011;54193;53.746;10.058;2022-12-18T00:44:21;18.52;;;7.22;;
67278;SDS011;54193;53.746;10.058;2022-12-18T00:47:07;14.57;;;4.77;;
67278;SDS011;54193;53.746;10.058;2022-12-18T00:49:53;24.45;;;10.48;;
67278;SDS011;54193;53.746;10.058;2022-12-18T00:52:42;23.58;;;8.32;;
67278;SDS011;54193;53.746;10.058;2022-12-18T00:55:27;20.10;;;7.72;;
67278;SDS011;54193;53.746;10.058;2022-12-18T00:58:14;16.25;;;4.72;;
67278;SDS011;54193;53.746;10.058;2022-12-18T01:01:00;22.85;;;7.90;;
67278;SDS011;54193;53.746;10.058;2022-12-18T01:03:46;25.70;;;8.20;;
67278;SDS011;54193;53.746;10.058;2022-12-18T01:06:32;16.40;;;7.43;;
67278;SDS011;54193;53.746;10.058;2022-12-18T01:09:17;24.27;;;8.70;;
67278;SDS011;54193;53.746;10.058;2022-12-18T01:12:03;14.07;;;5.45;;
67278;SDS011;54193;53.746;10.058;2022-12-18T01:14:49;23.60;;;8.60;;
67278;SDS011;54193;53.746;10.058;2022-12-18T01:17:35;19.17;;;8.95;;
67278;SDS011;54193;53.746;10.058;2022-12-18T01:20:20;14.55;;;6.50;;
67278;SDS011;54193;53.746;10.058;2022-12-18T01:23:06;9.75;;;2.97;;
67278;SDS011;54193;53.746;10.058;2022-12-18T01:25:51;25.85;;;8.10;;
67278;SDS011;54193;53.746;10.058;2022-12-18T01:28:37;16.77;;;8.23;;
67278;SDS011;54193;53.746;10.058;2022-12-18T01:31:25;17.58;;;9.32;;
67278;SDS011;54193;53.746;10.058;2022-12-18T01:34:12;12.90;;;5.65;;
67278;SDS011;54193;53.746;10.058;2022-12-18T01:36:58;14.48;;;5.63;;
67278;SDS011;54193;53.746;10.058;2022-12-18T01:39:44;16.40;;;5.95;;
67278;SDS011;54193;53.746;10.058;2022-12-18T01:42:29;14.70;;;5.77;;
67278;SDS011;54193;53.746;10.058;2022-12-18T01:48:02;5.28;;;3.15;;
67278;SDS011;54193;53.746;10.058;2022-12-18T01:50:50;16.10;;;5.97;;
67278;SDS011;54193;53.746;10.058;2022-12-18T01:53:36;27.63;;;10.18;;
67278;SDS011;54193;53.746;10.058;2022-12-18T01:56:22;18.55;;;6.38;;
67278;SDS011;54193;53.746;10.058;2022-12-18T01:59:08;25.48;;;9.80;;
67278;SDS011;54193;53.746;10.058;2022-12-18T02:01:56;20.05;;;7.43;;
67278;SDS011;54193;53.746;10.058;2022-12-18T02:04:42;14.63;;;7.03;;
67278;SDS011;54193;53.746;10.058;2022-12-18T02:10:54;11.77;;;5.43;;
67278;SDS011;54193;53.746;10.058;2022-12-18T02:13:58;19.25;;;7.03;;
67278;SDS011;54193;53.746;10.058;2022-12-18T02:19:59;18.45;;;6.75;;
67278;SDS011;54193;53.746;10.058;2022-12-18T02:22:54;18.38;;;7.28;;
67278;SDS011;54193;53.746;10.058;2022-12-18T02:32:20;16.63;;;6.93;;
67278;SDS011;54193;53.746;10.058;2022-12-18T02:35:13;21.42;;;7.88;;
67278;SDS011;54193;53.746;10.058;2022-12-18T02:38:02;12.93;;;5.32;;
67278;SDS011;54193;53.746;10.058;2022-12-18T02:40:49;17.20;;;7.20;;
67278;SDS011;54193;53.746;10.058;2022-12-18T02:43:35;26.50;;;9.30;;
67278;SDS011;54193;53.746;10.058;2022-12-18T02:46:24;9.00;;;3.35;;
67278;SDS011;54193;53.746;10.058;2022-12-18T02:55:01;6.67;;;3.63;;
67278;SDS011;54193;53.746;10.058;2022-12-18T02:58:05;4.60;;;2.17;;
67278;SDS011;54193;53.746;10.058;2022-12-18T03:04:11;14.70;;;5.95;;
67278;SDS011;54193;53.746;10.058;2022-12-18T03:07:02;13.02;;;5.85;;
67278;SDS011;54193;53.746;10.058;2022-12-18T03:09:52;8.13;;;3.87;;
67278;SDS011;54193;53.746;10.058;2022-12-18T03:12:40;22.05;;;7.82;;
67278;SDS011;54193;53.746;10.058;2022-12-18T03:15:31;12.43;;;4.35;;
67278;SDS011;54193;53.746;10.058;2022-12-18T03:18:27;6.18;;;2.88;;
67278;SDS011;54193;53.746;10.058;2022-12-18T03:21:19;15.07;;;5.05;;
67278;SDS011;54193;53.746;10.058;2022-12-18T03:24:08;13.63;;;5.97;;
67278;SDS011;54193;53.746;10.058;2022-12-18T03:26:57;9.60;;;3.80;;
67278;SDS011;54193;53.746;10.058;2022-12-18T03:29:57;7.32;;;3.80;;
67278;SDS011;54193;53.746;10.058;2022-12-18T03:33:01;7.05;;;2.70;;
67278;SDS011;54193;53.746;10.058;2022-12-18T03:35:51;13.13;;;3.35;;
67278;SDS011;54193;53.746;10.058;2022-12-18T03:38:36;8.53;;;4.03;;
67278;SDS011;54193;53.746;10.058;2022-12-18T03:47:57;16.55;;;5.32;;
67278;SDS011;54193;53.746;10.058;2022-12-18T03:50:48;17.25;;;6.88;;
67278;SDS011;54193;53.746;10.058;2022-12-18T03:53:49;6.43;;;2.80;;
67278;SDS011;54193;53.746;10.058;2022-12-18T03:56:43;10.88;;;4.85;;
67278;SDS011;54193;53.746;10.058;2022-12-18T03:59:36;15.85;;;4.93;;
67278;SDS011;54193;53.746;10.058;2022-12-18T04:02:23;14.20;;;6.20;;
67278;SDS011;54193;53.746;10.058;2022-12-18T04:05:10;13.02;;;6.35;;
67278;SDS011;54193;53.746;10.058;2022-12-18T04:07:57;14.10;;;5.60;;
67278;SDS011;54193;53.746;10.058;2022-12-18T04:10:43;12.75;;;4.47;;
67278;SDS011;54193;53.746;10.058;2022-12-18T04:13:31;6.78;;;3.30;;
67278;SDS011;54193;53.746;10.058;2022-12-18T04:16:19;18.02;;;6.22;;
67278;SDS011;54193;53.746;10.058;2022-12-18T04:19:05;8.00;;;4.03;;
67278;SDS011;54193;53.746;10.058;2022-12-18T04:21:50;12.87;;;4.33;;
67278;SDS011;54193;53.746;10.058;2022-12-18T04:24:36;9.73;;;4.45;;
67278;SDS011;54193;53.746;10.058;2022-12-18T04:27:22;17.65;;;6.32;;
67278;SDS011;54193;53.746;10.058;2022-12-18T04:30:07;14.18;;;4.53;;
67278;SDS011;54193;53.746;10.058;2022-12-18T04:32:53;9.02;;;3.38;;
67278;SDS011;54193;53.746;10.058;2022-12-18T04:35:41;14.43;;;6.17;;
67278;SDS011;54193;53.746;10.058;2022-12-18T04:38:26;4.22;;;2.20;;
67278;SDS011;54193;53.746;10.058;2022-12-18T04:41:12;16.27;;;5.88;;
67278;SDS011;54193;53.746;10.058;2022-12-18T04:43:58;7.90;;;3.42;;
67278;SDS011;54193;53.746;10.058;2022-12-18T04:46:43;14.98;;;6.10;;
67278;SDS011;54193;53.746;10.058;2022-12-18T04:49:29;12.73;;;5.87;;
67278;SDS011;54193;53.746;10.058;2022-12-18T04:52:15;12.23;;;4.15;;
67278;SDS011;54193;53.746;10.058;2022-12-18T04:55:00;16.23;;;6.55;;
67278;SDS011;54193;53.746;10.058;2022-12-18T04:57:46;9.77;;;4.97;;
67278;SDS011;54193;53.746;10.058;2022-12-18T05:00:31;16.85;;;5.50;;
67278;SDS011;54193;53.746;10.058;2022-12-18T05:03:17;22.00;;;9.57;;
67278;SDS011;54193;53.746;10.058;2022-12-18T05:06:03;9.13;;;4.15;;
67278;SDS011;54193;53.746;10.058;2022-12-18T05:08:50;20.52;;;7.28;;
67278;SDS011;54193;53.746;10.058;2022-12-18T05:11:35;19.70;;;7.85;;
67278;SDS011;54193;53.746;10.058;2022-12-18T05:14:21;15.23;;;4.03;;
67278;SDS011;54193;53.746;10.058;2022-12-18T05:17:07;15.47;;;6.63;;
67278;SDS011;54193;53.746;10.058;2022-12-18T05:19:52;20.17;;;8.23;;
67278;SDS011;54193;53.746;10.058;2022-12-18T05:22:38;9.73;;;3.33;;
67278;SDS011;54193;53.746;10.058;2022-12-18T05:25:24;16.92;;;6.32;;
67278;SDS011;54193;53.746;10.058;2022-12-18T05:28:09;13.25;;;6.43;;
67278;SDS011;54193;53.746;10.058;2022-12-18T05:30:56;13.13;;;4.37;;
67278;SDS011;54193;53.746;10.058;2022-12-18T05:33:43;22.30;;;7.50;;
67278;SDS011;54193;53.746;10.058;2022-12-18T05:36:29;19.15;;;7.60;;
67278;SDS011;54193;53.746;10.058;2022-12-18T05:39:14;19.42;;;8.18;;
67278;SDS011;54193;53.746;10.058;2022-12-18T05:42:00;14.43;;;4.55;;
67278;SDS011;54193;53.746;10.058;2022-12-18T05:44:45;18.13;;;6.60;;
67278;SDS011;54193;53.746;10.058;2022-12-18T05:47:31;7.88;;;4.20;;
67278;SDS011;54193;53.746;10.058;2022-12-18T05:50:17;12.57;;;5.78;;
67278;SDS011;54193;53.746;10.058;2022-12-18T05:53:03;14.25;;;5.53;;
67278;SDS011;54193;53.746;10.058;2022-12-18T05:55:49;14.30;;;5.80;;
67278;SDS011;54193;53.746;10.058;2022-12-18T05:58:35;11.90;;;5.07;;
67278;SDS011;54193;53.746;10.058;2022-12-18T06:01:23;8.57;;;4.20;;
67278;SDS011;54193;53.746;10.058;2022-12-18T06:04:10;9.30;;;4.65;;
67278;SDS011;54193;53.746;10.058;2022-12-18T06:06:56;12.07;;;4.85;;
67278;SDS011;54193;53.746;10.058;2022-12-18T06:09:41;14.63;;;6.57;;
67278;SDS011;54193;53.746;10.058;2022-12-18T06:12:27;11.23;;;4.80;;
67278;SDS011;54193;53.746;10.058;2022-12-18T06:15:12;21.02;;;7.53;;
67278;SDS011;54193;53.746;10.058;2022-12-18T06:17:59;5.22;;;1.90;;
67278;SDS011;54193;53.746;10.058;2022-12-18T06:20:53;9.88;;;3.47;;
67278;SDS011;54193;53.746;10.058;2022-12-18T06:23:40;11.65;;;4.90;;
67278;SDS011;54193;53.746;10.058;2022-12-18T06:26:25;19.70;;;6.13;;
67278;SDS011;54193;53.746;10.058;2022-12-18T06:29:11;9.80;;;5.20;;
67278;SDS011;54193;53.746;10.058;2022-12-18T06:31:57;17.30;;;6.40;;
67278;SDS011;54193;53.746;10.058;2022-12-18T06:34:42;16.48;;;6.18;;
67278;SDS011;54193;53.746;10.058;2022-12-18T06:37:28;18.88;;;7.18;;
67278;SDS011;54193;53.746;10.058;2022-12-18T06:40:15;18.02;;;7.43;;
67278;SDS011;54193;53.746;10.058;2022-12-18T06:43:01;14.98;;;5.88;;
67278;SDS011;54193;53.746;10.058;2022-12-18T06:45:46;19.53;;;7.70;;
67278;SDS011;54193;53.746;10.058;2022-12-18T06:48:38;15.35;;;5.93;;
67278;SDS011;54193;53.746;10.058;2022-12-18T06:51:24;14.40;;;5.22;;
67278;SDS011;54193;53.746;10.058;2022-12-18T06:54:09;17.77;;;6.88;;
67278;SDS011;54193;53.746;10.058;2022-12-18T06:56:55;20.10;;;7.85;;
67278;SDS011;54193;53.746;10.058;2022-12-18T06:59:41;18.87;;;7.37;;
67278;SDS011;54193;53.746;10.058;2022-12-18T07:02:27;17.95;;;7.35;;
67278;SDS011;54193;53.746;10.058;2022-12-18T07:05:12;9.27;;;5.00;;
67278;SDS011;54193;53.746;10.058;2022-12-18T07:07:58;22.77;;;8.77;;
67278;SDS011;54193;53.746;10.058;2022-12-18T07:10:44;8.60;;;3.38;;
67278;SDS011;54193;53.746;10.058;2022-12-18T07:13:30;4.90;;;2.53;;
67278;SDS011;54193;53.746;10.058;2022-12-18T07:16:16;15.88;;;6.68;;
67278;SDS011;54193;53.746;10.058;2022-12-18T07:19:03;10.82;;;4.07;;
67278;SDS011;54193;53.746;10.058;2022-12-18T07:21:49;13.27;;;7.18;;
67278;SDS011;54193;53.746;10.058;2022-12-18T07:24:36;22.27;;;8.43;;
67278;SDS011;54193;53.746;10.058;2022-12-18T07:27:22;12.03;;;4.43;;
67278;SDS011;54193;53.746;10.058;2022-12-18T07:30:08;11.73;;;4.72;;
67278;SDS011;54193;53.746;10.058;2022-12-18T07:32:54;7.35;;;3.25;;
67278;SDS011;54193;53.746;10.058;2022-12-18T07:35:40;17.17;;;6.28;;
67278;SDS011;54193;53.746;10.058;2022-12-18T07:38:26;13.50;;;5.13;;
67278;SDS011;54193;53.746;10.058;2022-12-18T07:41:12;19.67;;;7.10;;
67278;SDS011;54193;53.746;10.058;2022-12-18T07:43:58;14.05;;;6.88;;
67278;SDS011;54193;53.746;10.058;2022-12-18T07:46:44;24.15;;;9.43;;
67278;SDS011;54193;53.746;10.058;2022-12-18T07:49:30;11.23;;;4.55;;
67278;SDS011;54193;53.746;10.058;2022-12-18T07:52:15;17.15;;;6.35;;
67278;SDS011;54193;53.746;10.058;2022-12-18T07:55:01;7.53;;;3.77;;
67278;SDS011;54193;53.746;10.058;2022-12-18T07:57:49;23.50;;;8.80;;
67278;SDS011;54193;53.746;10.058;2022-12-18T08:00:35;11.95;;;4.50;;
67278;SDS011;54193;53.746;10.058;2022-12-18T08:03:21;23.58;;;9.50;;
67278;SDS011;54193;53.746;10.058;2022-12-18T08:06:07;8.32;;;3.63;;
67278;SDS011;54193;53.746;10.058;2022-12-18T08:08:55;8.43;;;4.20;;
67278;SDS011;54193;53.746;10.058;2022-12-18T08:11:41;9.55;;;4.22;;
67278;SDS011;54193;53.746;10.058;2022-12-18T08:14:27;14.15;;;5.63;;
67278;SDS011;54193;53.746;10.058;2022-12-18T08:17:13;14.50;;;6.88;;
67278;SDS011;54193;53.746;10.058;2022-12-18T08:19:58;18.52;;;8.20;;
67278;SDS011;54193;53.746;10.058;2022-12-18T08:22:44;13.77;;;5.07;;
67278;SDS011;54193;53.746;10.058;2022-12-18T08:25:30;15.45;;;5.97;;
67278;SDS011;54193;53.746;10.058;2022-12-18T08:28:16;18.85;;;7.40;;
67278;SDS011;54193;53.746;10.058;2022-12-18T08:31:01;13.20;;;4.72;;
67278;SDS011;54193;53.746;10.058;2022-12-18T08:33:48;15.70;;;7.13;;
67278;SDS011;54193;53.746;10.058;2022-12-18T08:36:35;13.80;;;6.30;;
67278;SDS011;54193;53.746;10.058;2022-12-18T08:39:21;17.20;;;7.13;;
67278;SDS011;54193;53.746;10.058;2022-12-18T08:42:06;25.10;;;10.82;;
67278;SDS011;54193;53.746;10.058;2022-12-18T08:45:10;23.25;;;9.85;;
67278;SDS011;54193;53.746;10.058;2022-12-18T08:47:56;17.02;;;6.47;;
67278;SDS011;54193;53.746;10.058;2022-12-18T08:50:42;8.93;;;4.93;;
67278;SDS011;54193;53.746;10.058;2022-12-18T08:53:27;13.45;;;5.63;;
67278;SDS011;54193;53.746;10.058;2022-12-18T08:56:14;15.27;;;6.57;;
67278;SDS011;54193;53.746;10.058;2022-12-18T08:59:00;16.25;;;6.32;;
67278;SDS011;54193;53.746;10.058;2022-12-18T09:01:46;14.65;;;5.22;;
67278;SDS011;54193;53.746;10.058;2022-12-18T09:04:33;20.73;;;6.60;;
67278;SDS011;54193;53.746;10.058;2022-12-18T09:07:18;25.73;;;10.20;;
67278;SDS011;54193;53.746;10.058;2022-12-18T09:10:04;20.30;;;8.50;;
67278;SDS011;54193;53.746;10.058;2022-12-18T09:12:50;12.60;;;5.40;;
67278;SDS011;54193;53.746;10.058;2022-12-18T09:15:42;10.13;;;4.50;;
67278;SDS011;54193;53.746;10.058;2022-12-18T09:18:32;18.25;;;8.30;;
67278;SDS011;54193;53.746;10.058;2022-12-18T09:21:19;13.38;;;5.72;;
67278;SDS011;54193;53.746;10.058;2022-12-18T09:24:06;9.63;;;4.30;;
67278;SDS011;54193;53.746;10.058;2022-12-18T09:26:55;15.85;;;6.43;;
67278;SDS011;54193;53.746;10.058;2022-12-18T09:29:41;6.30;;;3.50;;
67278;SDS011;54193;53.746;10.058;2022-12-18T09:32:27;12.73;;;4.97;;
67278;SDS011;54193;53.746;10.058;2022-12-18T09:35:13;11.30;;;5.28;;
67278;SDS011;54193;53.746;10.058;2022-12-18T09:37:58;8.88;;;3.40;;
67278;SDS011;54193;53.746;10.058;2022-12-18T09:43:41;17.30;;;6.85;;
67278;SDS011;54193;53.746;10.058;2022-12-18T09:46:32;13.90;;;6.53;;
67278;SDS011;54193;53.746;10.058;2022-12-18T09:49:23;8.63;;;3.42;;
67278;SDS011;54193;53.746;10.058;2022-12-18T09:52:32;11.82;;;4.80;;
67278;SDS011;54193;53.746;10.058;2022-12-18T09:55:24;16.00;;;7.55;;
67278;SDS011;54193;53.746;10.058;2022-12-18T10:01:25;16.33;;;6.35;;
67278;SDS011;54193;53.746;10.058;2022-12-18T10:04:12;17.65;;;7.50;;
67278;SDS011;54193;53.746;10.058;2022-12-18T10:13:33;6.30;;;3.17;;
67278;SDS011;54193;53.746;10.058;2022-12-18T10:19:28;19.80;;;6.60;;
67278;SDS011;54193;53.746;10.058;2022-12-18T10:26:07;8.43;;;4.40;;
67278;SDS011;54193;53.746;10.058;2022-12-18T10:28:55;11.48;;;5.03;;
67278;SDS011;54193;53.746;10.058;2022-12-18T10:31:42;19.00;;;5.80;;
67278;SDS011;54193;53.746;10.058;2022-12-18T10:34:28;11.82;;;5.28;;
67278;SDS011;54193;53.746;10.058;2022-12-18T10:37:19;12.38;;;3.60;;
67278;SDS011;54193;53.746;10.058;2022-12-18T10:40:08;9.38;;;3.67;;
67278;SDS011;54193;53.746;10.058;2022-12-18T10:43:10;16.25;;;6.20;;
67278;SDS011;54193;53.746;10.058;2022-12-18T10:48:53;17.58;;;6.82;;
67278;SDS011;54193;53.746;10.058;2022-12-18T10:51:40;7.38;;;3.28;;
67278;SDS011;54193;53.746;10.058;2022-12-18T10:54:26;8.68;;;2.83;;
67278;SDS011;54193;53.746;10.058;2022-12-18T10:57:56;17.85;;;7.10;;
67278;SDS011;54193;53.746;10.058;2022-12-18T11:00:25;18.83;;;7.32;;
67278;SDS011;54193;53.746;10.058;2022-12-18T11:06:24;16.73;;;7.07;;
67278;SDS011;54193;53.746;10.058;2022-12-18T11:09:20;10.57;;;4.78;;
67278;SDS011;54193;53.746;10.058;2022-12-18T11:14:55;16.95;;;5.32;;
67278;SDS011;54193;53.746;10.058;2022-12-18T11:17:41;13.77;;;4.68;;
67278;SDS011;54193;53.746;10.058;2022-12-18T11:20:30;12.85;;;4.18;;
67278;SDS011;54193;53.746;10.058;2022-12-18T11:23:16;9.50;;;2.97;;
67278;SDS011;54193;53.746;10.058;2022-12-18T11:26:05;16.65;;;5.93;;
67278;SDS011;54193;53.746;10.058;2022-12-18T11:28:52;13.68;;;5.57;;
67278;SDS011;54193;53.746;10.058;2022-12-18T11:31:57;8.38;;;2.55;;
67278;SDS011;54193;53.746;10.058;2022-12-18T11:35:14;19.05;;;6.78;;
67278;SDS011;54193;53.746;10.058;2022-12-18T11:44:48;8.15;;;3.38;;
67278;SDS011;54193;53.746;10.058;2022-12-18T11:47:49;15.05;;;5.78;;
67278;SDS011;54193;53.746;10.058;2022-12-18T11:50:57;10.32;;;3.88;;
67278;SDS011;54193;53.746;10.058;2022-12-18T11:53:45;26.98;;;9.27;;
67278;SDS011;54193;53.746;10.058;2022-12-18T11:56:39;26.15;;;8.95;;
67278;SDS011;54193;53.746;10.058;2022-12-18T11:59:33;34.90;;;12.60;;
67278;SDS011;54193;53.746;10.058;2022-12-18T12:02:42;13.55;;;5.15;;
67278;SDS011;54193;53.746;10.058;2022-12-18T12:11:56;9.35;;;3.33;;
67278;SDS011;54193;53.746;10.058;2022-12-18T12:20:42;37.55;;;12.50;;
67278;SDS011;54193;53.746;10.058;2022-12-18T12:23:49;22.23;;;9.02;;
67278;SDS011;54193;53.746;10.058;2022-12-18T12:39:36;63.17;;;18.73;;
67278;SDS011;54193;53.746;10.058;2022-12-18T12:42:29;50.80;;;14.32;;
67278;SDS011;54193;53.746;10.058;2022-12-18T12:45:54;26.02;;;9.13;;
67278;SDS011;54193;53.746;10.058;2022-12-18T12:48:46;9.55;;;4.47;;
67278;SDS011;54193;53.746;10.058;2022-12-18T12:51:36;39.45;;;14.52;;
67278;SDS011;54193;53.746;10.058;2022-12-18T12:54:30;26.10;;;11.18;;
67278;SDS011;54193;53.746;10.058;2022-12-18T12:57:21;29.05;;;12.35;;
67278;SDS011;54193;53.746;10.058;2022-12-18T13:00:15;27.17;;;11.45;;
67278;SDS011;54193;53.746;10.058;2022-12-18T13:03:15;16.20;;;6.38;;
67278;SDS011;54193;53.746;10.058;2022-12-18T13:06:37;26.05;;;8.82;;
67278;SDS011;54193;53.746;10.058;2022-12-18T13:09:33;15.88;;;6.10;;
67278;SDS011;54193;53.746;10.058;2022-12-18T13:12:20;16.77;;;6.18;;
67278;SDS011;54193;53.746;10.058;2022-12-18T13:15:26;8.65;;;3.88;;
67278;SDS011;54193;53.746;10.058;2022-12-18T13:18:33;23.80;;;9.45;;
67278;SDS011;54193;53.746;10.058;2022-12-18T13:24:36;13.95;;;5.43;;
67278;SDS011;54193;53.746;10.058;2022-12-18T13:36:09;9.75;;;3.60;;
67278;SDS011;54193;53.746;10.058;2022-12-18T13:44:50;19.13;;;7.78;;
67278;SDS011;54193;53.746;10.058;2022-12-18T13:47:36;17.70;;;6.53;;
67278;SDS011;54193;53.746;10.058;2022-12-18T13:50:23;27.35;;;10.07;;
67278;SDS011;54193;53.746;10.058;2022-12-18T13:53:17;15.55;;;5.90;;
67278;SDS011;54193;53.746;10.058;2022-12-18T13:56:06;5.68;;;2.42;;
67278;SDS011;54193;53.746;10.058;2022-12-18T14:02:00;23.95;;;9.10;;
67278;SDS011;54193;53.746;10.058;2022-12-18T14:04:53;16.85;;;6.40;;
67278;SDS011;54193;53.746;10.058;2022-12-18T14:07:39;33.92;;;12.35;;
67278;SDS011;54193;53.746;10.058;2022-12-18T14:10:25;30.17;;;11.05;;
67278;SDS011;54193;53.746;10.058;2022-12-18T14:13:13;31.83;;;12.33;;
67278;SDS011;54193;53.746;10.058;2022-12-18T14:16:03;21.27;;;7.80;;
67278;SDS011;54193;53.746;10.058;2022-12-18T14:18:55;26.73;;;9.07;;
67278;SDS011;54193;53.746;10.058;2022-12-18T14:21:49;38.40;;;15.68;;
67278;SDS011;54193;53.746;10.058;2022-12-18T14:24:35;25.90;;;9.60;;
67278;SDS011;54193;53.746;10.058;2022-12-18T14:27:22;28.23;;;9.68;;
67278;SDS011;54193;53.746;10.058;2022-12-18T14:30:23;27.83;;;9.25;;
67278;SDS011;54193;53.746;10.058;2022-12-18T14:33:13;18.10;;;7.80;;
67278;SDS011;54193;53.746;10.058;2022-12-18T14:36:02;35.92;;;13.77;;
67278;SDS011;54193;53.746;10.058;2022-12-18T14:38:50;21.40;;;8.70;;
67278;SDS011;54193;53.746;10.058;2022-12-18T14:41:38;35.42;;;13.25;;
67278;SDS011;54193;53.746;10.058;2022-12-18T14:44:24;33.33;;;12.43;;
67278;SDS011;54193;53.746;10.058;2022-12-18T14:47:13;23.45;;;10.30;;
67278;SDS011;54193;53.746;10.058;2022-12-18T14:50:00;28.55;;;11.73;;
67278;SDS011;54193;53.746;10.058;2022-12-18T14:52:46;27.95;;;10.88;;
67278;SDS011;54193;53.746;10.058;2022-12-18T14:55:31;41.10;;;16.00;;
67278;SDS011;54193;53.746;10.058;2022-12-18T14:58:17;29.60;;;11.52;;
67278;SDS011;54193;53.746;10.058;2022-12-18T15:01:03;18.40;;;8.68;;
67278;SDS011;54193;53.746;10.058;2022-12-18T15:03:50;40.85;;;15.88;;
67278;SDS011;54193;53.746;10.058;2022-12-18T15:06:37;40.72;;;16.10;;
67278;SDS011;54193;53.746;10.058;2022-12-18T15:09:25;52.38;;;19.48;;
67278;SDS011;54193;53.746;10.058;2022-12-18T15:18:29;43.28;;;17.45;;
67278;SDS011;54193;53.746;10.058;2022-12-18T15:21:18;38.70;;;16.50;;
67278;SDS011;54193;53.746;10.058;2022-12-18T15:24:13;23.58;;;8.90;;
67278;SDS011;54193;53.746;10.058;2022-12-18T15:27:03;22.80;;;7.15;;
67278;SDS011;54193;53.746;10.058;2022-12-18T15:30:02;40.10;;;15.35;;
67278;SDS011;54193;53.746;10.058;2022-12-18T15:36:25;44.88;;;18.58;;
67278;SDS011;54193;53.746;10.058;2022-12-18T15:39:11;44.72;;;18.13;;
67278;SDS011;54193;53.746;10.058;2022-12-18T15:41:58;17.13;;;7.13;;
67278;SDS011;54193;53.746;10.058;2022-12-18T15:45:04;31.77;;;12.38;;
67278;SDS011;54193;53.746;10.058;2022-12-18T15:47:51;27.42;;;9.98;;
67278;SDS011;54193;53.746;10.058;2022-12-18T15:50:36;49.20;;;18.48;;
67278;SDS011;54193;53.746;10.058;2022-12-18T15:53:22;59.80;;;23.98;;
67278;SDS011;54193;53.746;10.058;2022-12-18T15:56:10;48.25;;;19.23;;
67278;SDS011;54193;53.746;10.058;2022-12-18T15:59:16;48.55;;;18.85;;
67278;SDS011;54193;53.746;10.058;2022-12-18T16:02:07;56.50;;;18.92;;
67278;SDS011;54193;53.746;10.058;2022-12-18T16:05:01;51.25;;;18.17;;
67278;SDS011;54193;53.746;10.058;2022-12-18T16:07:46;21.25;;;8.23;;
67278;SDS011;54193;53.746;10.058;2022-12-18T16:10:33;43.95;;;15.73;;
67278;SDS011;54193;53.746;10.058;2022-12-18T16:13:18;42.50;;;15.15;;
67278;SDS011;54193;53.746;10.058;2022-12-18T16:16:07;58.53;;;22.52;;
67278;SDS011;54193;53.746;10.058;2022-12-18T16:18:53;37.38;;;14.98;;
67278;SDS011;54193;53.746;10.058;2022-12-18T16:21:39;43.78;;;15.30;;
67278;SDS011;54193;53.746;10.058;2022-12-18T16:24:26;62.20;;;24.42;;
67278;SDS011;54193;53.746;10.058;2022-12-18T16:27:13;60.80;;;24.23;;
67278;SDS011;54193;53.746;10.058;2022-12-18T16:29:59;32.47;;;10.88;;
67278;SDS011;54193;53.746;10.058;2022-12-18T16:32:45;49.40;;;17.08;;
67278;SDS011;54193;53.746;10.058;2022-12-18T16:35:31;58.92;;;23.98;;
67278;SDS011;54193;53.746;10.058;2022-12-18T16:38:17;43.92;;;15.95;;
67278;SDS011;54193;53.746;10.058;2022-12-18T16:41:06;65.28;;;24.17;;
67278;SDS011;54193;53.746;10.058;2022-12-18T16:44:18;59.33;;;24.52;;
67278;SDS011;54193;53.746;10.058;2022-12-18T16:47:05;70.97;;;27.38;;
67278;SDS011;54193;53.746;10.058;2022-12-18T16:49:50;67.13;;;25.65;;
67278;SDS011;54193;53.746;10.058;2022-12-18T16:52:37;69.05;;;26.95;;
67278;SDS011;54193;53.746;10.058;2022-12-18T16:55:24;66.68;;;25.77;;
67278;SDS011;54193;53.746;10.058;2022-12-18T16:58:09;62.75;;;23.80;;
67278;SDS011;54193;53.746;10.058;2022-12-18T17:00:55;41.28;;;13.85;;
67278;SDS011;54193;53.746;10.058;2022-12-18T17:03:41;63.20;;;24.73;;
67278;SDS011;54193;53.746;10.058;2022-12-18T17:06:27;65.20;;;23.38;;
67278;SDS011;54193;53.746;10.058;2022-12-18T17:09:15;56.88;;;20.98;;
67278;SDS011;54193;53.746;10.058;2022-12-18T17:12:02;64.85;;;24.98;;
67278;SDS011;54193;53.746;10.058;2022-12-18T17:14:48;73.90;;;33.08;;
67278;SDS011;54193;53.746;10.058;2022-12-18T17:17:34;61.80;;;24.35;;
67278;SDS011;54193;53.746;10.058;2022-12-18T17:20:20;62.95;;;22.92;;
67278;SDS011;54193;53.746;10.058;2022-12-18T17:23:06;62.83;;;24.17;;
67278;SDS011;54193;53.746;10.058;2022-12-18T17:25:58;69.97;;;28.00;;
67278;SDS011;54193;53.746;10.058;2022-12-18T17:28:44;40.53;;;16.02;;
67278;SDS011;54193;53.746;10.058;2022-12-18T17:31:30;54.00;;;18.35;;
67278;SDS011;54193;53.746;10.058;2022-12-18T17:34:16;43.67;;;16.88;;
67278;SDS011;54193;53.746;10.058;2022-12-18T17:37:02;51.83;;;21.73;;
67278;SDS011;54193;53.746;10.058;2022-12-18T17:39:47;46.83;;;17.13;;
67278;SDS011;54193;53.746;10.058;2022-12-18T17:42:33;51.25;;;19.95;;
67278;SDS011;54193;53.746;10.058;2022-12-18T17:45:19;46.55;;;17.17;;
67278;SDS011;54193;53.746;10.058;2022-12-18T17:48:05;53.03;;;19.77;;
67278;SDS011;54193;53.746;10.058;2022-12-18T17:50:51;30.95;;;11.40;;
67278;SDS011;54193;53.746;10.058;2022-12-18T17:53:37;47.83;;;17.98;;
67278;SDS011;54193;53.746;10.058;2022-12-18T17:56:23;42.05;;;15.90;;
67278;SDS011;54193;53.746;10.058;2022-12-18T17:59:09;34.60;;;12.15;;
67278;SDS011;54193;53.746;10.058;2022-12-18T18:01:55;47.38;;;17.20;;
67278;SDS011;54193;53.746;10.058;2022-12-18T18:04:41;29.15;;;12.15;;
67278;SDS011;54193;53.746;10.058;2022-12-18T18:07:27;34.35;;;13.45;;
67278;SDS011;54193;53.746;10.058;2022-12-18T18:10:12;45.58;;;18.45;;
67278;SDS011;54193;53.746;10.058;2022-12-18T18:12:58;49.03;;;19.75;;
67278;SDS011;54193;53.746;10.058;2022-12-18T18:16:02;41.53;;;17.63;;
67278;SDS011;54193;53.746;10.058;2022-12-18T18:18:48;27.05;;;10.80;;
67278;SDS011;54193;53.746;10.058;2022-12-18T18:21:33;31.33;;;13.27;;
67278;SDS011;54193;53.746;10.058;2022-12-18T18:24:23;38.97;;;16.33;;
67278;SDS011;54193;53.746;10.058;2022-12-18T18:27:10;28.83;;;10.45;;
67278;SDS011;54193;53.746;10.058;2022-12-18T18:29:55;34.95;;;12.52;;